Meath Environmental Platform

Observations for Trim Patrick St

Time AQI Temp °C Hum % Pres Pa CO μg/m³ H₂S μg/m³ NO μg/m³ NO₂ μg/m³ O₃ μg/m³ SO₂ μg/m³ PM1 μg/m³ PM2.5 μg/m³ PM10 μg/m³
Wednesday 26 August 2026
22:15 3 17.1 79 38,460 0.04 8.24 1.49 26.37 48.23 0 19.14 27.09 29.8
22:14 3 17.1 79 38,460 0.05 8.58 1.46 28 46.5 0 19.14 27.11 29.82
22:13 3 17.1 78 38,460 0.04 8.34 1.37 27.98 47.42 0 18.29 25.71 28.28
22:12 3 17.1 78 38,460 0.05 8.53 1.17 26.85 48.86 0 19.14 24.31 26.74
22:11 3 17.1 78 38,460 0.05 8.71 1.08 26.82 48.27 0 19.14 26.43 29.07
22:10 3 17.2 78 38,460 0.05 9.86 0.95 30.36 48.23 0 20.86 29.26 31.22
22:09 3 17.2 78 38,460 0.04 8.73 0.88 27.21 49.52 0 18.29 26.47 28.45
22:08 3 17.2 78 38,460 0.04 9.07 0.94 26.42 49.1 0 18.29 27.16 29.87
22:07 3 17.2 78 38,460 0.04 8.84 1.03 26.39 50.45 0 19.14 27.87 30.66
22:06 3 17.3 78 38,460 0.02 9.65 1.01 27.14 49.16 0 18.29 25.76 28.34
22:05 3 17.3 78 38,460 0.03 9.05 0.93 26.03 51.22 0 18.29 25.76 28.34
22:04 3 17.3 78 38,460 0.04 9.36 0.99 26 52.37 0 16.57 25.07 27.58
22:03 3 17.3 78 38,460 0.03 9.23 1.07 26.25 52.46 0 18.29 27.2 29.92
22:02 3 17.3 78 38,460 0.03 9.05 0.98 27.35 51.8 0 19.14 27.21 29.93
22:01 3 17.4 78 38,460 0.03 9.02 0.95 26.68 51.88 0 17.43 26.52 29.17
22:00 3 17.4 78 38,460 0.04 8.47 1.2 25.24 51.78 0 18.29 25.83 28.41
21:59 3 17.4 78 38,460 0.04 9.15 1.23 26.36 50.58 0 16.57 25.12 27.63
21:58 3 17.4 78 38,460 0.05 10.7 1.1 26.68 53.85 0 17.43 25.81 27.15
21:57 3 17.4 78 38,460 0.05 11.95 1.03 40.06 47.8 0 19.14 27.24 29.96
21:56 3 17.5 78 38,460 0.05 11.72 1.05 35 49.45 0 20 27.95 29.33